createdAt,value
2023-02-28T00:01:30.974Z,0.70
2023-02-28T00:03:58.498Z,0.77
2023-02-28T00:06:26.035Z,1.33
2023-02-28T00:08:53.463Z,0.88
2023-02-28T00:11:20.708Z,1.30
2023-02-28T00:13:48.921Z,2.33
2023-02-28T00:16:17.717Z,0.95
2023-02-28T00:18:45.037Z,2.47
2023-02-28T00:21:12.309Z,0.70
2023-02-28T00:23:39.643Z,1.45
2023-02-28T00:26:07.081Z,1.98
2023-02-28T00:28:34.328Z,3.13
2023-02-28T00:31:01.852Z,6.88
2023-02-28T00:33:29.648Z,7.03
2023-02-28T00:36:04.944Z,5.13
2023-02-28T00:40:59.726Z,4.60
2023-02-28T00:43:27.491Z,5.28
2023-02-28T00:45:54.793Z,4.85
2023-02-28T00:48:22.147Z,2.67
2023-02-28T00:50:52.251Z,1.42
2023-02-28T00:53:19.533Z,2.72
2023-02-28T00:55:46.775Z,2.28
2023-02-28T00:58:14.059Z,1.73
2023-02-28T01:00:41.262Z,1.13
2023-02-28T01:03:08.510Z,2.65
2023-02-28T01:05:35.717Z,1.92
2023-02-28T01:08:02.937Z,3.30
2023-02-28T01:10:32.610Z,1.10
2023-02-28T01:12:59.957Z,2.05
2023-02-28T01:15:27.261Z,1.65
2023-02-28T01:17:54.479Z,2.38
2023-02-28T01:20:21.807Z,3.60
2023-02-28T01:22:49.059Z,5.30
2023-02-28T01:25:16.523Z,2.88
2023-02-28T01:27:43.821Z,1.20
2023-02-28T01:30:11.595Z,1.15
2023-02-28T01:32:38.851Z,0.63
2023-02-28T01:35:06.279Z,1.52
2023-02-28T01:37:33.580Z,0.63
2023-02-28T01:40:00.795Z,0.75
2023-02-28T01:42:28.136Z,1.92
2023-02-28T01:45:01.489Z,1.58
2023-02-28T01:47:33.893Z,0.75
2023-02-28T01:50:02.514Z,0.60
2023-02-28T01:52:30.359Z,1.60
2023-02-28T01:54:58.670Z,1.27
2023-02-28T01:57:28.237Z,1.25
2023-02-28T01:59:59.650Z,1.65
2023-02-28T02:02:27.566Z,1.48
2023-02-28T02:04:57.827Z,0.63
2023-02-28T02:07:26.759Z,1.63
2023-02-28T02:10:23.439Z,2.63
2023-02-28T02:13:08.317Z,1.00
2023-02-28T02:15:43.574Z,1.23
2023-02-28T02:20:52.147Z,1.08
2023-02-28T02:23:19.350Z,1.65
2023-02-28T02:25:49.586Z,1.10
2023-02-28T02:28:35.382Z,1.25
2023-02-28T02:31:21.418Z,1.52
2023-02-28T02:34:07.250Z,1.58
2023-02-28T02:36:41.534Z,2.25
2023-02-28T02:39:08.762Z,1.40
2023-02-28T02:41:38.631Z,2.05
2023-02-28T02:44:13.937Z,1.25
2023-02-28T02:49:11.188Z,2.30
2023-02-28T02:51:40.160Z,1.30
2023-02-28T02:54:12.880Z,1.92
2023-02-28T02:56:43.403Z,1.80
2023-02-28T02:59:12.638Z,1.77
2023-02-28T03:01:41.267Z,1.00
2023-02-28T03:04:10.364Z,1.15
2023-02-28T03:06:37.691Z,1.27
2023-02-28T03:09:05.613Z,1.90
2023-02-28T03:11:33.262Z,1.05
2023-02-28T03:14:00.466Z,2.10
2023-02-28T03:16:30.654Z,1.60
2023-02-28T03:18:58.714Z,1.63
2023-02-28T03:21:31.952Z,2.08
2023-02-28T03:24:09.161Z,1.50
2023-02-28T03:26:38.181Z,1.63
2023-02-28T03:29:17.118Z,3.05
2023-02-28T03:31:53.082Z,1.50
2023-02-28T03:34:40.752Z,1.13
2023-02-28T03:37:11.002Z,1.00
2023-02-28T03:39:40.197Z,2.10
2023-02-28T03:42:10.656Z,1.15
2023-02-28T03:44:42.536Z,1.75
2023-02-28T03:47:12.648Z,1.60
2023-02-28T03:49:48.941Z,3.17
2023-02-28T03:52:16.602Z,1.80
2023-02-28T03:54:45.992Z,2.60
2023-02-28T03:57:22.085Z,1.40
2023-02-28T03:59:51.907Z,1.02
2023-02-28T04:02:19.726Z,4.80
2023-02-28T04:04:49.745Z,2.75
2023-02-28T04:07:17.375Z,2.25
2023-02-28T04:09:45.149Z,2.70
2023-02-28T04:12:12.444Z,4.10
2023-02-28T04:14:39.764Z,1.17
2023-02-28T04:17:07.050Z,1.30
2023-02-28T04:19:34.315Z,1.77
2023-02-28T04:22:01.592Z,1.80
2023-02-28T04:24:29.360Z,2.65
2023-02-28T04:26:57.879Z,2.63
2023-02-28T04:29:25.156Z,2.45
2023-02-28T04:31:54.462Z,2.45
2023-02-28T04:34:22.283Z,1.85
2023-02-28T04:37:06.097Z,1.95
2023-02-28T04:39:38.850Z,1.30
2023-02-28T04:42:06.715Z,1.85
2023-02-28T04:44:34.054Z,1.52
2023-02-28T04:47:01.373Z,1.88
2023-02-28T04:49:28.678Z,1.80
2023-02-28T04:51:56.818Z,1.30
2023-02-28T04:54:24.142Z,1.73
2023-02-28T04:56:51.482Z,1.40
2023-02-28T04:59:19.128Z,1.95
2023-02-28T05:01:50.240Z,1.13
2023-02-28T05:04:18.268Z,1.40
2023-02-28T05:06:45.967Z,1.42
2023-02-28T05:09:13.229Z,1.70
2023-02-28T05:11:40.677Z,1.45
2023-02-28T05:14:17.041Z,1.83
2023-02-28T05:16:44.680Z,1.65
2023-02-28T05:19:11.966Z,1.52
2023-02-28T05:21:43.620Z,2.08
2023-02-28T05:24:12.026Z,1.42
2023-02-28T05:26:40.712Z,3.85
2023-02-28T05:29:07.955Z,5.13
2023-02-28T05:31:35.698Z,1.58
2023-02-28T05:34:05.332Z,1.65
2023-02-28T05:36:33.275Z,2.03
2023-02-28T05:39:00.575Z,5.82
2023-02-28T05:41:28.460Z,1.65
2023-02-28T05:43:56.076Z,1.63
2023-02-28T05:46:23.278Z,2.53
2023-02-28T05:48:50.991Z,3.05
2023-02-28T05:51:19.025Z,2.65
2023-02-28T05:53:46.388Z,1.25
2023-02-28T05:56:13.672Z,3.60
2023-02-28T05:58:40.965Z,2.60
2023-02-28T06:01:34.284Z,3.15
2023-02-28T06:04:02.389Z,2.45
2023-02-28T06:06:30.648Z,2.63
2023-02-28T06:08:58.155Z,2.10
2023-02-28T06:11:28.862Z,1.98
2023-02-28T06:13:57.345Z,2.08
2023-02-28T06:16:25.201Z,2.75
2023-02-28T06:18:53.702Z,2.33
2023-02-28T06:21:20.994Z,1.35
2023-02-28T06:23:48.228Z,3.45
2023-02-28T06:26:15.678Z,3.15
2023-02-28T06:28:42.924Z,2.03
2023-02-28T06:31:10.942Z,3.00
2023-02-28T06:33:38.956Z,6.43
2023-02-28T06:36:06.862Z,3.22
2023-02-28T06:38:34.569Z,3.03
2023-02-28T06:41:02.586Z,4.65
2023-02-28T06:43:31.518Z,8.77
2023-02-28T06:45:59.684Z,3.58
2023-02-28T06:48:28.242Z,3.50
2023-02-28T06:51:12.301Z,3.92
2023-02-28T06:53:39.654Z,4.03
2023-02-28T06:56:08.245Z,3.05
2023-02-28T06:58:35.676Z,3.33
2023-02-28T07:01:02.955Z,4.43
2023-02-28T07:03:30.221Z,3.08
2023-02-28T07:05:57.563Z,3.25
2023-02-28T07:08:25.307Z,4.50
2023-02-28T07:10:56.125Z,4.82
2023-02-28T07:13:23.853Z,3.83
2023-02-28T07:16:04.666Z,3.50
2023-02-28T07:18:32.603Z,5.50
2023-02-28T07:20:59.964Z,3.45
2023-02-28T07:23:27.267Z,3.00
2023-02-28T07:25:54.589Z,5.18
2023-02-28T07:28:21.884Z,3.55
2023-02-28T07:30:49.428Z,4.97
2023-02-28T07:33:16.744Z,3.08
2023-02-28T07:35:44.299Z,4.68
2023-02-28T07:38:11.627Z,3.25
2023-02-28T07:40:38.885Z,5.70
2023-02-28T07:43:06.164Z,3.63
2023-02-28T07:45:35.592Z,4.88
2023-02-28T07:48:02.996Z,2.97
2023-02-28T07:50:31.926Z,4.93
2023-02-28T07:53:02.397Z,4.28
2023-02-28T07:55:29.744Z,3.55
2023-02-28T07:57:58.317Z,4.63
2023-02-28T08:00:25.731Z,4.10
2023-02-28T08:02:53.028Z,4.35
2023-02-28T08:05:22.127Z,4.88
2023-02-28T08:07:51.104Z,4.55
2023-02-28T08:10:18.416Z,3.58
2023-02-28T08:12:45.704Z,3.75
2023-02-28T08:15:13.025Z,2.88
2023-02-28T08:17:40.323Z,4.03
2023-02-28T08:20:07.987Z,3.85
2023-02-28T08:22:35.234Z,3.38
2023-02-28T08:25:02.474Z,2.88
2023-02-28T08:27:29.739Z,4.70
2023-02-28T08:29:56.973Z,5.95
2023-02-28T08:32:29.838Z,3.75
2023-02-28T08:34:57.777Z,4.55
2023-02-28T08:37:25.096Z,3.17
2023-02-28T08:39:55.570Z,4.90
2023-02-28T08:42:23.437Z,5.40
2023-02-28T08:44:50.707Z,2.85
2023-02-28T08:47:17.967Z,2.60
2023-02-28T08:49:45.249Z,2.42
2023-02-28T08:52:12.476Z,2.67
2023-02-28T08:54:39.841Z,2.20
2023-02-28T08:57:07.169Z,2.28
2023-02-28T08:59:34.622Z,3.60
2023-02-28T09:02:01.913Z,4.22
2023-02-28T09:04:31.821Z,2.17
2023-02-28T09:06:59.073Z,3.08
2023-02-28T09:09:26.374Z,2.25
2023-02-28T09:11:53.718Z,3.03
2023-02-28T09:14:21.020Z,2.17
2023-02-28T09:16:48.306Z,3.03
2023-02-28T09:19:15.685Z,2.78
2023-02-28T09:21:43.089Z,2.88
2023-02-28T09:24:12.739Z,2.20
2023-02-28T09:26:43.442Z,2.13
2023-02-28T09:29:18.848Z,2.20
2023-02-28T09:31:46.517Z,2.13
2023-02-28T09:34:14.098Z,1.60
2023-02-28T09:36:45.662Z,2.15
2023-02-28T09:39:15.588Z,1.60
2023-02-28T09:41:51.949Z,2.00
2023-02-28T09:44:26.216Z,1.80
2023-02-28T09:46:57.035Z,2.50
2023-02-28T09:49:30.447Z,3.33
2023-02-28T09:52:05.743Z,2.90
2023-02-28T09:57:29.276Z,3.95
2023-02-28T09:59:56.528Z,2.67
2023-02-28T10:02:23.740Z,3.72
2023-02-28T10:04:57.358Z,2.10
2023-02-28T10:07:44.220Z,2.42
2023-02-28T10:10:20.150Z,1.88
2023-02-28T10:12:48.562Z,2.58
2023-02-28T10:15:17.168Z,3.45
2023-02-28T10:17:55.131Z,2.08
2023-02-28T10:20:30.842Z,3.60
2023-02-28T10:23:08.643Z,2.58
2023-02-28T10:25:37.491Z,2.65
2023-02-28T10:28:13.459Z,1.95
2023-02-28T10:30:45.635Z,1.55
2023-02-28T10:33:21.234Z,2.67
2023-02-28T10:35:48.640Z,3.58
2023-02-28T10:38:35.282Z,2.25
2023-02-28T10:41:09.714Z,2.63
2023-02-28T10:43:37.496Z,1.80
2023-02-28T10:46:04.809Z,3.55
2023-02-28T10:48:35.170Z,3.53
2023-02-28T10:51:03.551Z,3.33
2023-02-28T10:53:36.104Z,3.83
2023-02-28T10:56:11.921Z,2.85
2023-02-28T10:58:54.391Z,2.70
2023-02-28T11:01:23.138Z,2.38
2023-02-28T11:03:51.172Z,3.28
2023-02-28T11:06:23.686Z,3.75
2023-02-28T11:08:55.416Z,3.97
2023-02-28T11:11:24.981Z,2.88
2023-02-28T11:13:54.357Z,2.65
2023-02-28T11:16:22.054Z,3.53
2023-02-28T11:18:51.084Z,3.17
2023-02-28T11:21:20.442Z,2.13
2023-02-28T11:23:47.942Z,2.60
2023-02-28T11:26:15.711Z,3.30
2023-02-28T11:28:43.845Z,3.40
2023-02-28T11:31:17.323Z,4.28
2023-02-28T11:33:46.039Z,3.08
2023-02-28T11:36:15.382Z,2.60
2023-02-28T11:38:43.250Z,2.60
2023-02-28T11:41:10.463Z,2.35
2023-02-28T11:43:46.067Z,3.40
2023-02-28T11:46:13.389Z,2.97
2023-02-28T11:49:00.924Z,4.25
2023-02-28T11:51:28.471Z,4.15
2023-02-28T11:54:14.730Z,2.90
2023-02-28T11:56:44.667Z,4.15
2023-02-28T11:59:25.755Z,3.85
2023-02-28T12:01:52.967Z,3.15
2023-02-28T12:04:27.573Z,3.20
2023-02-28T12:06:59.543Z,3.08
2023-02-28T12:09:48.711Z,5.18
2023-02-28T12:12:34.535Z,3.22
2023-02-28T12:15:01.795Z,2.85
2023-02-28T12:17:48.036Z,2.30
2023-02-28T12:20:24.456Z,3.13
2023-02-28T12:23:00.495Z,3.35
2023-02-28T12:25:48.084Z,4.25
2023-02-28T12:28:17.794Z,2.97
2023-02-28T12:30:57.229Z,3.42
2023-02-28T12:33:26.845Z,3.75
2023-02-28T12:35:58.570Z,2.63
2023-02-28T12:38:40.945Z,3.08
2023-02-28T12:41:14.601Z,3.25
2023-02-28T12:43:47.210Z,3.50
2023-02-28T12:46:18.863Z,3.75
2023-02-28T12:48:57.818Z,3.90
2023-02-28T12:51:26.490Z,3.67
2023-02-28T12:54:06.053Z,3.50
2023-02-28T12:56:36.099Z,3.42
2023-02-28T12:59:05.849Z,5.10
2023-02-28T13:01:39.113Z,4.82
2023-02-28T13:04:21.718Z,3.50
2023-02-28T13:07:03.938Z,4.13
2023-02-28T13:09:31.379Z,4.13
2023-02-28T13:11:59.612Z,3.38
2023-02-28T13:14:28.256Z,4.65
2023-02-28T13:17:04.736Z,5.47
2023-02-28T13:19:33.476Z,5.28
2023-02-28T13:22:01.344Z,5.07
2023-02-28T13:24:37.844Z,5.03
2023-02-28T13:27:05.237Z,4.85
2023-02-28T13:29:34.788Z,5.70
2023-02-28T13:32:07.766Z,5.20
2023-02-28T13:34:38.255Z,7.28
2023-02-28T13:37:24.078Z,4.85
2023-02-28T13:39:54.511Z,5.53
2023-02-28T13:42:28.521Z,7.18
2023-02-28T13:45:08.150Z,5.05
2023-02-28T13:47:35.448Z,6.90
2023-02-28T13:50:21.234Z,3.72
2023-02-28T13:52:59.803Z,5.60
2023-02-28T13:55:27.754Z,4.18
2023-02-28T13:58:01.109Z,5.53
2023-02-28T14:00:46.947Z,4.10
2023-02-28T14:03:29.359Z,8.15
2023-02-28T14:06:26.159Z,4.70
2023-02-28T14:08:53.577Z,5.45
2023-02-28T14:11:47.824Z,3.60
2023-02-28T14:14:34.033Z,4.50
2023-02-28T14:17:01.285Z,5.70
2023-02-28T14:19:30.329Z,5.40
2023-02-28T14:22:03.865Z,4.82
2023-02-28T14:24:43.519Z,5.80
2023-02-28T14:27:22.527Z,5.88
2023-02-28T14:30:01.004Z,4.72
2023-02-28T14:32:37.546Z,4.57
2023-02-28T14:35:16.741Z,4.15
2023-02-28T14:37:44.587Z,5.50
2023-02-28T14:40:19.740Z,6.30
2023-02-28T14:42:56.675Z,9.30
2023-02-28T14:45:24.489Z,6.15
2023-02-28T14:47:53.095Z,7.10
2023-02-28T14:50:21.593Z,4.63
2023-02-28T14:52:49.541Z,5.00
2023-02-28T14:55:19.566Z,5.43
2023-02-28T14:57:54.383Z,7.35
2023-02-28T15:00:26.334Z,5.22
2023-02-28T15:02:54.728Z,5.75
2023-02-28T15:05:21.926Z,4.07
2023-02-28T15:07:50.050Z,6.50
2023-02-28T15:10:21.917Z,5.72
2023-02-28T15:12:59.381Z,8.20
2023-02-28T15:16:01.334Z,6.38
2023-02-28T15:18:35.177Z,5.72
2023-02-28T15:21:07.943Z,6.55
2023-02-28T15:23:37.088Z,4.72
2023-02-28T15:26:04.727Z,5.75
2023-02-28T15:28:32.224Z,6.70
2023-02-28T15:31:03.959Z,7.25
2023-02-28T15:33:32.570Z,9.05
2023-02-28T15:36:07.524Z,6.72
2023-02-28T15:38:36.376Z,8.35
2023-02-28T15:41:09.237Z,9.10
2023-02-28T15:43:38.288Z,11.82
2023-02-28T15:46:05.739Z,11.95
2023-02-28T15:48:35.292Z,7.10
2023-02-28T15:51:21.459Z,8.20
2023-02-28T15:54:02.754Z,7.97
2023-02-28T15:56:31.373Z,6.55
2023-02-28T15:58:59.868Z,8.23
2023-02-28T16:01:31.068Z,7.18
2023-02-28T16:04:05.454Z,8.02
2023-02-28T16:06:37.665Z,10.00
2023-02-28T16:09:08.933Z,7.30
2023-02-28T16:11:42.304Z,7.50
2023-02-28T16:14:36.636Z,7.18
2023-02-28T16:17:05.584Z,6.53
2023-02-28T16:19:34.691Z,7.97
2023-02-28T16:22:02.297Z,6.60
2023-02-28T16:24:29.661Z,9.65
2023-02-28T16:26:57.730Z,6.82
2023-02-28T16:29:30.865Z,7.35
2023-02-28T16:31:58.555Z,8.50
2023-02-28T16:34:26.167Z,7.55
2023-02-28T16:36:53.424Z,6.07
2023-02-28T16:39:23.844Z,6.07
2023-02-28T16:41:52.338Z,7.97
2023-02-28T16:44:27.207Z,9.30
2023-02-28T16:46:54.524Z,7.30
2023-02-28T16:49:22.064Z,7.47
2023-02-28T16:51:49.395Z,7.13
2023-02-28T16:54:16.673Z,5.93
2023-02-28T16:56:46.007Z,7.07
2023-02-28T16:59:13.560Z,10.93
2023-02-28T17:01:40.994Z,7.55
2023-02-28T17:04:08.270Z,6.28
2023-02-28T17:06:35.658Z,14.75
2023-02-28T17:09:02.984Z,48.17
2023-02-28T17:43:11.121Z,10.27
2023-02-28T17:45:38.856Z,6.00
2023-02-28T17:48:06.381Z,5.45
2023-02-28T17:50:34.189Z,7.10
2023-02-28T17:53:04.324Z,4.93
2023-02-28T17:55:31.669Z,6.57
2023-02-28T17:57:58.964Z,7.43
2023-02-28T18:00:26.295Z,5.35
2023-02-28T18:02:53.650Z,6.32
2023-02-28T18:05:21.004Z,6.55
2023-02-28T18:07:48.451Z,5.40
2023-02-28T18:10:22.728Z,6.93
2023-02-28T18:12:50.844Z,6.85
2023-02-28T18:15:21.057Z,7.60
2023-02-28T18:17:49.013Z,5.50
2023-02-28T18:20:16.392Z,5.80
2023-02-28T18:22:43.644Z,5.57
2023-02-28T18:25:14.754Z,6.05
2023-02-28T18:27:54.158Z,6.57
2023-02-28T18:30:22.223Z,5.93
2023-02-28T18:32:49.648Z,5.68
2023-02-28T18:35:24.106Z,6.70
2023-02-28T18:37:51.365Z,6.03
2023-02-28T18:40:18.675Z,4.47
2023-02-28T18:42:46.105Z,5.95
2023-02-28T18:45:13.705Z,6.15
2023-02-28T18:47:40.976Z,5.80
2023-02-28T18:50:08.363Z,6.20
2023-02-28T18:52:35.705Z,6.32
2023-02-28T18:55:02.969Z,6.03
2023-02-28T18:57:30.301Z,6.10
2023-02-28T18:59:57.590Z,7.20
2023-02-28T19:02:24.838Z,6.43
2023-02-28T19:04:52.190Z,6.30
2023-02-28T19:07:19.490Z,6.90
2023-02-28T19:09:46.746Z,6.32
2023-02-28T19:12:14.043Z,5.53
2023-02-28T19:14:41.352Z,6.75
2023-02-28T19:17:08.801Z,7.93
2023-02-28T19:19:36.236Z,5.93
2023-02-28T19:22:03.533Z,8.15
2023-02-28T19:24:30.841Z,7.30
2023-02-28T19:26:58.099Z,9.55
2023-02-28T19:29:25.403Z,8.32
2023-02-28T19:31:53.462Z,9.68
2023-02-28T19:34:20.939Z,12.60
2023-02-28T19:36:48.230Z,14.02
2023-02-28T19:39:15.507Z,10.82
2023-02-28T19:41:42.738Z,12.27
2023-02-28T19:44:10.157Z,12.40
2023-02-28T19:46:37.510Z,11.95
2023-02-28T19:49:04.812Z,12.60
2023-02-28T19:51:34.188Z,11.57
2023-02-28T19:54:01.452Z,11.55
2023-02-28T19:56:28.927Z,11.07
2023-02-28T19:58:58.471Z,13.75
2023-02-28T20:01:25.876Z,11.85
2023-02-28T20:03:53.161Z,13.00
2023-02-28T20:06:20.466Z,10.85
2023-02-28T20:08:47.755Z,10.00
2023-02-28T20:11:16.303Z,11.32
2023-02-28T20:13:43.921Z,10.73
2023-02-28T20:16:12.392Z,13.48
2023-02-28T20:18:40.300Z,13.00
2023-02-28T20:21:11.023Z,11.50
2023-02-28T20:23:39.006Z,12.52
2023-02-28T20:26:06.421Z,14.27
2023-02-28T20:28:33.759Z,14.45
2023-02-28T20:31:01.140Z,12.18
2023-02-28T20:33:28.632Z,11.80
2023-02-28T20:35:59.911Z,13.63
2023-02-28T20:38:28.183Z,15.15
2023-02-28T20:40:56.469Z,12.30
2023-02-28T20:43:24.119Z,11.65
2023-02-28T20:45:52.602Z,10.52
2023-02-28T20:48:20.054Z,13.57
2023-02-28T20:50:50.919Z,14.23
2023-02-28T20:53:18.611Z,11.82
2023-02-28T20:55:59.407Z,12.30
2023-02-28T20:58:27.559Z,15.05
2023-02-28T21:01:04.637Z,11.75
2023-02-28T21:03:31.985Z,12.43
2023-02-28T21:06:02.938Z,12.75
2023-02-28T21:08:30.331Z,11.13
2023-02-28T21:10:57.668Z,9.98
2023-02-28T21:13:26.816Z,10.30
2023-02-28T21:15:54.488Z,9.82
2023-02-28T21:18:21.891Z,13.50
2023-02-28T21:20:49.137Z,11.13
2023-02-28T21:23:16.367Z,13.00
2023-02-28T21:25:43.595Z,11.65
2023-02-28T21:28:10.837Z,11.18
2023-02-28T21:30:38.249Z,10.32
2023-02-28T21:33:05.537Z,12.30
2023-02-28T21:35:32.830Z,13.73
2023-02-28T21:38:00.044Z,15.57
2023-02-28T21:40:27.323Z,13.75
2023-02-28T21:42:56.673Z,11.95
2023-02-28T21:45:23.947Z,13.55
2023-02-28T21:47:51.156Z,14.80
2023-02-28T21:50:18.571Z,12.35
2023-02-28T21:52:45.822Z,16.38
2023-02-28T21:55:13.199Z,13.13
2023-02-28T21:57:40.717Z,14.85
2023-02-28T22:00:09.029Z,14.95
2023-02-28T22:02:37.048Z,11.73
2023-02-28T22:05:04.413Z,12.82
2023-02-28T22:07:31.733Z,13.18
2023-02-28T22:09:59.070Z,10.40
2023-02-28T22:12:26.375Z,12.40
2023-02-28T22:14:53.744Z,12.52
2023-02-28T22:17:20.965Z,13.77
2023-02-28T22:19:48.210Z,12.10
2023-02-28T22:22:15.499Z,12.35
2023-02-28T22:24:42.794Z,9.50
2023-02-28T22:27:10.101Z,13.55
2023-02-28T22:29:37.329Z,11.65
2023-02-28T22:32:04.749Z,13.00
2023-02-28T22:34:32.023Z,13.43
2023-02-28T22:36:59.249Z,12.10
2023-02-28T22:39:26.512Z,12.38
2023-02-28T22:41:56.239Z,14.25
2023-02-28T22:44:23.539Z,13.60
2023-02-28T22:46:55.201Z,12.45
2023-02-28T22:49:22.582Z,13.02
2023-02-28T22:51:49.834Z,11.02
2023-02-28T22:54:17.621Z,9.77
2023-02-28T22:56:44.880Z,11.35
2023-02-28T22:59:15.375Z,13.70
2023-02-28T23:01:44.746Z,12.70
2023-02-28T23:04:12.931Z,11.70
2023-02-28T23:06:42.294Z,11.35
2023-02-28T23:09:12.296Z,13.27
2023-02-28T23:11:40.767Z,11.82
2023-02-28T23:14:08.719Z,11.45
2023-02-28T23:16:38.406Z,11.35
2023-02-28T23:19:07.200Z,10.52
2023-02-28T23:21:35.208Z,10.52
2023-02-28T23:24:03.361Z,11.00
2023-02-28T23:26:31.942Z,12.95
2023-02-28T23:28:59.497Z,12.35
2023-02-28T23:31:26.841Z,11.18
2023-02-28T23:33:54.100Z,13.18
2023-02-28T23:36:21.463Z,11.25
2023-02-28T23:38:49.697Z,13.35
2023-02-28T23:41:17.518Z,12.13
2023-02-28T23:43:45.047Z,13.77
2023-02-28T23:46:13.844Z,12.90
2023-02-28T23:48:41.508Z,10.70
2023-02-28T23:51:10.209Z,9.70
2023-02-28T23:53:41.332Z,9.65
2023-02-28T23:56:09.854Z,9.70
2023-02-28T23:58:37.171Z,11.02
